sensor_id;sensor_type;location;lat;lon;timestamp;P1;durP1;ratioP1;P2;durP2;ratioP2
57087;SDS011;42965;52.846;6.614;2022-10-20T00:01:00;8.90;;;4.75;;
57087;SDS011;42965;52.846;6.614;2022-10-20T00:03:27;9.00;;;3.70;;
57087;SDS011;42965;52.846;6.614;2022-10-20T00:05:53;10.65;;;4.90;;
57087;SDS011;42965;52.846;6.614;2022-10-20T00:08:30;6.90;;;4.18;;
57087;SDS011;42965;52.846;6.614;2022-10-20T00:10:56;7.20;;;3.45;;
57087;SDS011;42965;52.846;6.614;2022-10-20T00:13:23;7.75;;;5.55;;
57087;SDS011;42965;52.846;6.614;2022-10-20T00:15:50;7.80;;;4.63;;
57087;SDS011;42965;52.846;6.614;2022-10-20T00:18:21;10.02;;;4.70;;
57087;SDS011;42965;52.846;6.614;2022-10-20T00:20:48;9.13;;;5.13;;
57087;SDS011;42965;52.846;6.614;2022-10-20T00:23:15;8.25;;;4.07;;
57087;SDS011;42965;52.846;6.614;2022-10-20T00:25:42;7.68;;;4.53;;
57087;SDS011;42965;52.846;6.614;2022-10-20T00:28:08;9.50;;;5.03;;
57087;SDS011;42965;52.846;6.614;2022-10-20T00:30:35;8.00;;;3.95;;
57087;SDS011;42965;52.846;6.614;2022-10-20T00:33:02;7.25;;;4.43;;
57087;SDS011;42965;52.846;6.614;2022-10-20T00:35:29;8.48;;;4.45;;
57087;SDS011;42965;52.846;6.614;2022-10-20T00:37:57;14.13;;;4.60;;
57087;SDS011;42965;52.846;6.614;2022-10-20T00:40:23;7.65;;;3.92;;
57087;SDS011;42965;52.846;6.614;2022-10-20T00:42:50;6.72;;;4.65;;
57087;SDS011;42965;52.846;6.614;2022-10-20T00:45:18;7.68;;;4.82;;
57087;SDS011;42965;52.846;6.614;2022-10-20T00:47:46;9.05;;;4.18;;
57087;SDS011;42965;52.846;6.614;2022-10-20T00:52:44;7.75;;;4.28;;
57087;SDS011;42965;52.846;6.614;2022-10-20T00:55:12;7.97;;;4.32;;
57087;SDS011;42965;52.846;6.614;2022-10-20T00:57:41;7.82;;;4.70;;
57087;SDS011;42965;52.846;6.614;2022-10-20T01:00:11;13.77;;;5.32;;
57087;SDS011;42965;52.846;6.614;2022-10-20T01:02:38;9.27;;;4.75;;
57087;SDS011;42965;52.846;6.614;2022-10-20T01:05:04;11.02;;;5.05;;
57087;SDS011;42965;52.846;6.614;2022-10-20T01:07:31;9.65;;;5.25;;
57087;SDS011;42965;52.846;6.614;2022-10-20T01:09:57;10.60;;;4.50;;
57087;SDS011;42965;52.846;6.614;2022-10-20T01:12:29;7.85;;;4.70;;
57087;SDS011;42965;52.846;6.614;2022-10-20T01:28:19;7.50;;;4.60;;
57087;SDS011;42965;52.846;6.614;2022-10-20T01:30:55;8.70;;;5.18;;
57087;SDS011;42965;52.846;6.614;2022-10-20T01:33:36;8.65;;;5.30;;
57087;SDS011;42965;52.846;6.614;2022-10-20T01:36:18;8.40;;;4.22;;
57087;SDS011;42965;52.846;6.614;2022-10-20T01:38:52;7.35;;;4.38;;
57087;SDS011;42965;52.846;6.614;2022-10-20T01:41:24;7.32;;;5.25;;
57087;SDS011;42965;52.846;6.614;2022-10-20T01:44:02;6.38;;;4.32;;
57087;SDS011;42965;52.846;6.614;2022-10-20T01:46:31;8.77;;;5.40;;
57087;SDS011;42965;52.846;6.614;2022-10-20T01:49:01;6.50;;;4.88;;
57087;SDS011;42965;52.846;6.614;2022-10-20T01:51:30;6.53;;;4.65;;
57087;SDS011;42965;52.846;6.614;2022-10-20T01:53:57;7.43;;;4.53;;
57087;SDS011;42965;52.846;6.614;2022-10-20T01:56:44;6.78;;;4.43;;
57087;SDS011;42965;52.846;6.614;2022-10-20T01:59:47;5.60;;;3.85;;
57087;SDS011;42965;52.846;6.614;2022-10-20T02:05:05;8.07;;;5.13;;
57087;SDS011;42965;52.846;6.614;2022-10-20T02:07:35;10.77;;;5.10;;
57087;SDS011;42965;52.846;6.614;2022-10-20T02:10:04;7.72;;;5.32;;
57087;SDS011;42965;52.846;6.614;2022-10-20T02:12:36;7.40;;;4.43;;
57087;SDS011;42965;52.846;6.614;2022-10-20T02:15:05;6.93;;;4.85;;
57087;SDS011;42965;52.846;6.614;2022-10-20T02:17:35;9.43;;;5.13;;
57087;SDS011;42965;52.846;6.614;2022-10-20T02:20:05;8.10;;;4.82;;
57087;SDS011;42965;52.846;6.614;2022-10-20T02:22:32;9.98;;;6.00;;
57087;SDS011;42965;52.846;6.614;2022-10-20T02:25:00;8.20;;;5.07;;
57087;SDS011;42965;52.846;6.614;2022-10-20T02:27:34;9.20;;;5.05;;
57087;SDS011;42965;52.846;6.614;2022-10-20T02:32:37;12.80;;;5.68;;
57087;SDS011;42965;52.846;6.614;2022-10-20T02:35:07;10.30;;;5.63;;
57087;SDS011;42965;52.846;6.614;2022-10-20T02:37:37;9.93;;;6.32;;
57087;SDS011;42965;52.846;6.614;2022-10-20T02:40:04;9.77;;;5.95;;
57087;SDS011;42965;52.846;6.614;2022-10-20T02:42:31;9.85;;;5.40;;
57087;SDS011;42965;52.846;6.614;2022-10-20T02:44:57;7.03;;;4.55;;
57087;SDS011;42965;52.846;6.614;2022-10-20T02:47:24;9.43;;;5.65;;
57087;SDS011;42965;52.846;6.614;2022-10-20T02:49:50;6.85;;;5.32;;
57087;SDS011;42965;52.846;6.614;2022-10-20T02:52:16;14.32;;;6.32;;
57087;SDS011;42965;52.846;6.614;2022-10-20T02:54:42;8.40;;;6.63;;
57087;SDS011;42965;52.846;6.614;2022-10-20T02:57:08;12.60;;;6.00;;
57087;SDS011;42965;52.846;6.614;2022-10-20T02:59:35;11.30;;;6.38;;
57087;SDS011;42965;52.846;6.614;2022-10-20T03:02:01;9.65;;;6.18;;
57087;SDS011;42965;52.846;6.614;2022-10-20T03:04:27;10.68;;;5.63;;
57087;SDS011;42965;52.846;6.614;2022-10-20T03:06:54;7.88;;;6.15;;
57087;SDS011;42965;52.846;6.614;2022-10-20T03:09:20;7.38;;;4.32;;
57087;SDS011;42965;52.846;6.614;2022-10-20T03:11:46;8.27;;;6.70;;
57087;SDS011;42965;52.846;6.614;2022-10-20T03:14:12;11.07;;;6.85;;
57087;SDS011;42965;52.846;6.614;2022-10-20T03:16:39;10.05;;;6.43;;
57087;SDS011;42965;52.846;6.614;2022-10-20T03:19:05;11.05;;;6.25;;
57087;SDS011;42965;52.846;6.614;2022-10-20T03:21:31;9.63;;;7.18;;
57087;SDS011;42965;52.846;6.614;2022-10-20T03:23:57;9.10;;;7.22;;
57087;SDS011;42965;52.846;6.614;2022-10-20T03:26:24;11.10;;;6.50;;
57087;SDS011;42965;52.846;6.614;2022-10-20T03:28:50;9.13;;;7.63;;
57087;SDS011;42965;52.846;6.614;2022-10-20T03:31:16;12.50;;;8.25;;
57087;SDS011;42965;52.846;6.614;2022-10-20T03:33:42;10.43;;;6.70;;
57087;SDS011;42965;52.846;6.614;2022-10-20T03:36:08;9.00;;;7.55;;
57087;SDS011;42965;52.846;6.614;2022-10-20T03:38:35;9.55;;;7.32;;
57087;SDS011;42965;52.846;6.614;2022-10-20T03:41:02;11.13;;;8.48;;
57087;SDS011;42965;52.846;6.614;2022-10-20T03:43:29;10.68;;;7.45;;
57087;SDS011;42965;52.846;6.614;2022-10-20T03:46:05;10.85;;;8.07;;
57087;SDS011;42965;52.846;6.614;2022-10-20T03:48:33;13.75;;;8.05;;
57087;SDS011;42965;52.846;6.614;2022-10-20T03:51:01;9.38;;;7.15;;
57087;SDS011;42965;52.846;6.614;2022-10-20T03:53:28;10.48;;;8.20;;
57087;SDS011;42965;52.846;6.614;2022-10-20T03:55:54;15.07;;;8.85;;
57087;SDS011;42965;52.846;6.614;2022-10-20T03:58:20;9.95;;;8.70;;
57087;SDS011;42965;52.846;6.614;2022-10-20T04:00:47;11.68;;;7.53;;
57087;SDS011;42965;52.846;6.614;2022-10-20T04:03:17;14.43;;;9.13;;
57087;SDS011;42965;52.846;6.614;2022-10-20T04:05:43;12.27;;;9.00;;
57087;SDS011;42965;52.846;6.614;2022-10-20T04:08:09;10.27;;;8.45;;
57087;SDS011;42965;52.846;6.614;2022-10-20T04:10:35;12.05;;;9.30;;
57087;SDS011;42965;52.846;6.614;2022-10-20T04:13:02;11.10;;;9.55;;
57087;SDS011;42965;52.846;6.614;2022-10-20T04:15:28;12.20;;;9.55;;
57087;SDS011;42965;52.846;6.614;2022-10-20T04:17:54;11.45;;;10.25;;
57087;SDS011;42965;52.846;6.614;2022-10-20T04:20:21;15.02;;;10.48;;
57087;SDS011;42965;52.846;6.614;2022-10-20T04:22:47;11.65;;;10.07;;
57087;SDS011;42965;52.846;6.614;2022-10-20T04:25:13;13.18;;;9.30;;
57087;SDS011;42965;52.846;6.614;2022-10-20T04:27:41;14.20;;;10.88;;
57087;SDS011;42965;52.846;6.614;2022-10-20T04:30:12;12.18;;;10.15;;
57087;SDS011;42965;52.846;6.614;2022-10-20T04:32:38;12.45;;;10.35;;
57087;SDS011;42965;52.846;6.614;2022-10-20T04:35:04;12.27;;;10.23;;
57087;SDS011;42965;52.846;6.614;2022-10-20T04:37:33;11.57;;;9.15;;
57087;SDS011;42965;52.846;6.614;2022-10-20T04:40:00;16.65;;;10.43;;
57087;SDS011;42965;52.846;6.614;2022-10-20T04:42:34;12.13;;;10.63;;
57087;SDS011;42965;52.846;6.614;2022-10-20T04:45:01;13.63;;;11.18;;
57087;SDS011;42965;52.846;6.614;2022-10-20T04:47:30;12.32;;;10.80;;
57087;SDS011;42965;52.846;6.614;2022-10-20T04:49:58;12.52;;;11.20;;
57087;SDS011;42965;52.846;6.614;2022-10-20T04:52:24;12.45;;;10.50;;
57087;SDS011;42965;52.846;6.614;2022-10-20T04:54:51;12.77;;;10.13;;
57087;SDS011;42965;52.846;6.614;2022-10-20T04:57:17;14.90;;;11.85;;
57087;SDS011;42965;52.846;6.614;2022-10-20T04:59:44;13.68;;;11.23;;
57087;SDS011;42965;52.846;6.614;2022-10-20T05:02:10;14.50;;;10.90;;
57087;SDS011;42965;52.846;6.614;2022-10-20T05:04:37;16.40;;;11.20;;
57087;SDS011;42965;52.846;6.614;2022-10-20T05:07:03;14.10;;;11.55;;
57087;SDS011;42965;52.846;6.614;2022-10-20T05:09:31;11.07;;;8.07;;
57087;SDS011;42965;52.846;6.614;2022-10-20T05:11:58;14.43;;;12.25;;
57087;SDS011;42965;52.846;6.614;2022-10-20T05:14:28;17.25;;;12.35;;
57087;SDS011;42965;52.846;6.614;2022-10-20T05:16:54;12.68;;;11.00;;
57087;SDS011;42965;52.846;6.614;2022-10-20T05:19:20;17.05;;;12.57;;
57087;SDS011;42965;52.846;6.614;2022-10-20T05:21:47;14.38;;;12.00;;
57087;SDS011;42965;52.846;6.614;2022-10-20T05:24:16;16.50;;;11.98;;
57087;SDS011;42965;52.846;6.614;2022-10-20T05:26:43;14.93;;;11.15;;
57087;SDS011;42965;52.846;6.614;2022-10-20T05:29:11;14.82;;;12.38;;
57087;SDS011;42965;52.846;6.614;2022-10-20T05:31:39;15.82;;;12.55;;
57087;SDS011;42965;52.846;6.614;2022-10-20T05:34:07;13.95;;;12.43;;
57087;SDS011;42965;52.846;6.614;2022-10-20T05:36:34;16.33;;;12.18;;
57087;SDS011;42965;52.846;6.614;2022-10-20T05:39:01;15.60;;;12.88;;
57087;SDS011;42965;52.846;6.614;2022-10-20T05:41:29;16.17;;;14.20;;
57087;SDS011;42965;52.846;6.614;2022-10-20T05:43:58;15.32;;;13.57;;
57087;SDS011;42965;52.846;6.614;2022-10-20T05:46:27;14.50;;;12.00;;
57087;SDS011;42965;52.846;6.614;2022-10-20T05:48:57;16.13;;;12.95;;
57087;SDS011;42965;52.846;6.614;2022-10-20T05:51:25;17.63;;;13.30;;
57087;SDS011;42965;52.846;6.614;2022-10-20T05:53:54;16.90;;;13.13;;
57087;SDS011;42965;52.846;6.614;2022-10-20T05:56:21;19.55;;;13.88;;
57087;SDS011;42965;52.846;6.614;2022-10-20T05:58:49;16.23;;;12.27;;
57087;SDS011;42965;52.846;6.614;2022-10-20T06:01:17;15.50;;;13.30;;
57087;SDS011;42965;52.846;6.614;2022-10-20T06:03:49;14.07;;;12.55;;
57087;SDS011;42965;52.846;6.614;2022-10-20T06:06:17;15.07;;;12.38;;
57087;SDS011;42965;52.846;6.614;2022-10-20T06:08:45;13.25;;;11.63;;
57087;SDS011;42965;52.846;6.614;2022-10-20T06:11:12;17.27;;;13.13;;
57087;SDS011;42965;52.846;6.614;2022-10-20T06:13:41;20.75;;;13.65;;
57087;SDS011;42965;52.846;6.614;2022-10-20T06:16:09;22.95;;;17.13;;
57087;SDS011;42965;52.846;6.614;2022-10-20T06:18:40;17.38;;;14.55;;
57087;SDS011;42965;52.846;6.614;2022-10-20T06:21:21;15.75;;;13.23;;
57087;SDS011;42965;52.846;6.614;2022-10-20T06:23:49;18.40;;;14.40;;
57087;SDS011;42965;52.846;6.614;2022-10-20T06:26:18;16.98;;;14.13;;
57087;SDS011;42965;52.846;6.614;2022-10-20T06:28:48;15.02;;;13.13;;
57087;SDS011;42965;52.846;6.614;2022-10-20T06:31:17;15.40;;;12.32;;
